Airfield :
LOGIN :

Register | Disclaimer

   EN    FR    IT 

 










Legend :    VFR   Marginal VFR   IFR   Intensive IFR   Very Intensive IFR
Visi :
Ceiling :
>= 8 km
>= 3000ft
5 to 8 km
1000 to 3000 ft
1500m to 5 km
500 to 1000 ft
800 to 1500m
200 to 500 ft
< 800m
< 200 ft
Symbols :   Thunderstorms  Fog  Heavy snow  Heavy precipitations  Wind > 20 kt
SIGMETs :     Misc.  Thunderstorms  Icing  Turbulence  Mountain Waves  Volcanic Ashes







- Airport Elevation : 100 ft


EBDT - Schaffen

CURRENT METAR :
  • 211555Z AUTO 17005KT 9000 FEW085/// BKN160/// 04/02 Q1016 BLU

EXPIRED METARs :
  • 211537Z AUTO 17005KT 7000 SCT085/// BKN100/// OVC110/// 04/02 Q1016 WHT
  • 211525Z AUTO 17005KT 8000 SCT090/// OVC100/// 04/02 Q1016 BLU
  • 211503Z AUTO 17006KT 7000 FEW010/// BKN100/// BKN120/// 04/02 Q1016 WHT
  • 211455Z AUTO 17006KT 8000 FEW010/// BKN100/// BKN120/// 04/02 Q1017 BLU
  • 211433Z AUTO 17006KT 9000 SCT011/// BKN130/// 04/02 Q1016 GRN
  • 211425Z AUTO 18005KT 9000 FEW012/// SCT170/// 04/02 Q1016 BLU
  • 211355Z AUTO 18004KT 9999 FEW014/// BKN190/// 05/02 Q1016 BLU
  • 211325Z AUTO 19005KT 9999 FEW130/// BKN220/// 05/02 Q1017 BLU

Expired Forecast.
No reported NOTAMs for that airfield.
1 SIGMET reported for the Brussels FIR (EBBU) :
 
Severe icing
EBBU SIGMET 01 VALID 211600/212000 EBBR
EBBU BRUSSELS FIR SEV ICE FCST SE OF LINE N5020 E004 - N51 E00545 FL020/060 MOV ENE NC=



MET'MAP, your aeronautical weather chart ! - Copyright ORBIFLY December 2007 - Disclaimer

ORBIFLY MET'MAP TEAM :

Programming & Development : Alexandra Zaïnal
Concept & Development : Baudouin d'Aumeries
Co-Development & Prog : Marc-Olivier Méhu
Technical & hardware support : Manuel Goepfert

Contact : metmap@orbifly.com




SOURCES & CREDITS :

   NOAA